Time;durP1;ratioP1;P1;durP2;ratioP2;P2;SDS_P1;SDS_P2;PMS_P1;PMS_P2;Temp;Humidity;BMP_temperature;BMP_pressure;BME280_temperature;BME280_humidity;BME280_pressure;Samples;Min_cycle;Max_cycle;Signal;HPM_P1;HPM_P2
2023/03/18 00:01:13;;;;;;;28.98;19.50;;;13.90;99.90;;;14.26;78.49;100612.66;4994826;28;20077;-69
2023/03/18 00:03:42;;;;;;;24.02;19.27;;;13.80;99.90;;;14.27;78.53;100609.09;4994824;28;20775;-69
2023/03/18 00:06:14;;;;;;;24.65;18.98;;;13.80;99.90;;;14.27;78.84;100602.03;4994658;28;20050;-69
2023/03/18 00:08:45;;;;;;;28.05;19.33;;;13.90;99.90;;;14.29;78.75;100600.19;4994811;28;20042;-70
2023/03/18 00:11:15;;;;;;;28.52;19.33;;;13.90;99.90;;;14.30;78.75;100607.25;4993892;28;20132;-69
2023/03/18 00:13:43;;;;;;;26.10;18.67;;;13.90;99.90;;;14.33;78.85;100603.66;4994661;28;20447;-70
2023/03/18 00:16:14;;;;;;;30.52;20.48;;;13.90;99.90;;;14.34;78.76;100605.41;4994464;28;20408;-69
2023/03/18 00:18:43;;;;;;;27.98;20.42;;;13.90;99.90;;;14.35;78.62;100609.81;4994354;28;20412;-69
2023/03/18 00:21:12;;;;;;;25.83;19.77;;;14.00;99.90;;;14.37;78.76;100606.22;4992622;28;20149;-69
2023/03/18 00:23:40;;;;;;;29.70;20.77;;;14.00;99.90;;;14.34;79.10;100602.75;4994407;28;20452;-69
2023/03/18 00:26:10;;;;;;;32.30;20.42;;;14.00;99.90;;;14.34;78.97;100608.09;4994099;28;20646;-69
2023/03/18 00:28:42;;;;;;;27.58;20.13;;;14.00;99.90;;;14.35;78.88;100609.81;4994304;28;20051;-69
2023/03/18 00:31:13;;;;;;;26.48;20.02;;;14.00;99.90;;;14.25;79.03;100598.47;4994151;28;20073;-69
2023/03/18 00:33:44;;;;;;;30.20;20.00;;;14.00;99.90;;;14.21;78.96;100603.91;4993974;28;20063;-69
2023/03/18 00:36:15;;;;;;;27.95;20.20;;;13.90;99.90;;;13.63;79.89;100598.16;4994231;28;20500;-69
2023/03/18 00:38:46;;;;;;;25.60;19.98;;;13.30;99.90;;;13.70;80.79;100605.09;4993972;28;20042;-69
2023/03/18 00:41:15;;;;;;;;;;;13.20;99.90;;;13.64;81.79;100589.25;4994268;28;20073;-69
2023/03/18 00:43:51;;;;;;;31.33;21.23;;;13.30;99.90;;;13.80;81.92;100598.66;4993966;28;19925;-69
2023/03/18 00:46:28;;;;;;;28.83;19.50;;;13.30;99.90;;;13.82;81.52;100599.50;4993838;28;20332;-69
2023/03/18 00:48:59;;;;;;;27.63;19.92;;;13.40;99.90;;;13.82;81.55;100603.03;4993784;28;20419;-72
2023/03/18 00:51:32;;;;;;;27.00;19.30;;;13.40;99.90;;;13.82;81.54;100611.00;4992523;28;20066;-69
2023/03/18 00:54:05;;;;;;;28.65;19.85;;;13.40;99.90;;;13.80;81.80;100611.97;4993831;28;20078;-69
2023/03/18 00:56:36;;;;;;;28.08;20.83;;;13.40;99.90;;;13.81;82.23;100606.59;4992428;28;20058;-69
2023/03/18 00:59:06;;;;;;;28.95;20.33;;;13.30;99.90;;;13.82;82.50;100604.84;4992498;28;20526;-69
2023/03/18 01:01:36;;;;;;;31.27;20.65;;;13.40;99.90;;;13.81;82.64;100592.44;4992382;28;20050;-69
2023/03/18 01:04:05;;;;;;;;;;;13.40;99.90;;;13.80;82.69;100604.84;4994176;28;20188;-69
2023/03/18 01:06:36;;;;;;;35.13;21.13;;;13.40;99.90;;;13.06;82.61;100480.72;4993687;28;20386;-68
2023/03/18 01:09:07;;;;;;;31.13;22.00;;;13.40;99.90;;;13.89;82.43;100596.69;4992135;28;20092;-69
2023/03/18 01:11:36;;;;;;;30.90;21.15;;;13.50;99.90;;;13.82;82.40;100589.72;4993607;28;20051;-69
2023/03/18 01:14:05;;;;;;;27.10;20.40;;;13.50;99.90;;;13.86;82.82;100595.88;4992236;28;20073;-69
2023/03/18 01:16:34;;;;;;;26.27;20.95;;;13.50;99.90;;;13.82;82.36;100607.50;4992239;28;20050;-68
2023/03/18 01:19:03;;;;;;;30.45;21.20;;;13.40;99.90;;;13.70;82.79;100600.66;4992342;28;20133;-69
2023/03/18 01:21:32;;;;;;;27.00;20.10;;;13.40;99.90;;;13.69;82.77;100613.94;4993482;28;20465;-69
2023/03/18 01:24:03;;;;;;;26.25;19.85;;;13.30;99.90;;;13.54;83.27;100609.84;4991792;28;20050;-69
2023/03/18 01:26:33;;;;;;;26.33;19.73;;;13.20;99.90;;;13.53;83.50;100613.41;4991956;28;20047;-69
2023/03/18 01:29:02;;;;;;;27.23;20.80;;;13.10;99.90;;;13.54;84.15;100615.16;4991800;28;20050;-68
2023/03/18 01:31:33;;;;;;;28.15;20.95;;;13.10;99.90;;;13.52;84.17;100611.66;4993097;28;20454;-69
2023/03/18 01:34:09;;;;;;;29.52;20.75;;;13.20;99.90;;;13.48;84.77;100613.50;4992955;28;20034;-69
2023/03/18 01:36:45;;;;;;;29.02;21.02;;;13.20;99.90;;;13.57;84.99;100607.13;4991612;28;20054;-69
2023/03/18 01:39:16;;;;;;;29.38;21.02;;;13.20;99.90;;;13.61;84.81;100595.50;4992899;28;20484;-69
2023/03/18 01:41:45;;;;;;;30.42;20.42;;;13.20;99.90;;;13.65;84.56;100606.94;4992922;28;20134;-69
2023/03/18 01:44:23;;;;;;;30.58;19.67;;;13.30;99.90;;;13.65;84.46;100599.84;4991421;28;20054;-69
2023/03/18 01:46:55;;;;;;;27.63;19.85;;;13.30;99.90;;;13.62;84.08;100601.72;4991259;28;20142;-69
2023/03/18 01:49:31;;;;;;;31.30;20.02;;;13.30;99.90;;;13.64;84.51;100614.06;4992033;28;20496;-69
2023/03/18 01:52:06;;;;;;;27.10;20.00;;;13.20;99.90;;;13.62;84.54;100612.34;4992044;28;20050;-69
2023/03/18 01:54:40;;;;;;;29.38;20.88;;;13.20;99.90;;;13.60;84.39;100612.38;4993261;28;20039;-69
2023/03/18 01:57:08;;;;;;;28.63;19.73;;;13.20;99.90;;;13.67;84.57;100608.69;4993177;28;20157;-69
2023/03/18 01:59:41;;;;;;;26.25;20.92;;;13.30;99.90;;;13.74;84.05;100612.09;4991943;28;20062;-68
2023/03/18 02:02:13;;;;;;;28.67;20.20;;;13.30;99.90;;;13.78;83.86;100624.41;4991858;28;20436;-68
2023/03/18 02:04:49;;;;;;;27.13;20.60;;;13.40;99.90;;;13.53;83.71;100566.44;4991692;28;20092;-69
2023/03/18 02:07:21;;;;;;;26.88;19.48;;;13.40;99.90;;;13.68;83.73;100597.16;4991690;28;20124;-69
2023/03/18 02:09:51;;;;;;;29.20;20.63;;;13.40;99.90;;;13.82;83.65;100616.31;4991264;28;20069;-69
2023/03/18 02:12:24;;;;;;;26.65;20.05;;;13.40;99.90;;;13.80;83.17;100606.66;4991438;28;20074;-69
2023/03/18 02:14:57;;;;;;;28.45;20.65;;;13.40;99.90;;;13.82;83.39;100616.31;4991727;28;20049;-69
2023/03/18 02:17:29;;;;;;;29.10;19.88;;;13.40;99.90;;;13.68;83.22;100588.28;4993019;28;20068;-69
2023/03/18 02:20:12;;;;;;;26.60;20.13;;;13.40;99.90;;;13.63;83.88;100614.09;4991747;28;20543;-69
2023/03/18 02:22:45;;;;;;;26.40;19.95;;;13.30;99.90;;;13.41;84.81;100598.56;4991701;28;20089;-69
2023/03/18 02:25:28;;;;;;;28.45;20.75;;;13.00;99.90;;;13.43;85.07;100614.50;4992916;28;20050;-69
2023/03/18 02:28:02;;;;;;;29.10;20.08;;;13.00;99.90;;;13.40;85.21;100618.09;4991463;28;20133;-69
2023/03/18 02:30:38;;;;;;;28.15;21.25;;;13.00;99.90;;;13.26;85.55;100613.94;4991243;28;20046;-69
2023/03/18 02:33:10;;;;;;;33.72;21.85;;;13.00;99.90;;;13.26;85.90;100625.44;4991689;28;20073;-69
2023/03/18 02:35:40;;;;;;;28.35;20.77;;;13.00;99.90;;;13.26;85.84;100611.28;4991464;28;20054;-69
2023/03/18 02:38:08;;;;;;;27.00;19.98;;;13.00;99.90;;;13.28;85.79;100612.13;4991356;28;20070;-69
2023/03/18 02:40:40;;;;;;;27.60;19.98;;;13.00;99.90;;;13.29;85.70;100620.09;4992547;28;20053;-69
2023/03/18 02:43:23;;;;;;;28.70;19.73;;;13.00;99.90;;;13.36;85.80;100618.19;4991104;28;20061;-69
2023/03/18 02:46:15;;;;;;;27.65;20.50;;;13.00;99.90;;;13.38;85.88;100619.03;4991392;28;20092;-69
2023/03/18 02:48:46;;;;;;;30.85;20.35;;;13.10;99.90;;;13.49;86.02;100617.91;4991185;28;20134;-69
2023/03/18 02:51:17;;;;;;;30.50;21.52;;;13.20;99.90;;;13.55;86.11;100611.56;4991362;28;20443;-68
2023/03/18 02:53:47;;;;;;;29.80;19.90;;;13.20;99.90;;;13.66;85.85;100619.34;4991108;28;20085;-69
2023/03/18 02:56:16;;;;;;;27.17;20.27;;;13.30;99.90;;;13.73;86.34;100628.94;4991090;28;20152;-69
2023/03/18 02:58:46;;;;;;;26.15;19.92;;;13.40;99.90;;;13.76;86.20;100616.47;4991135;28;20595;-69
2023/03/18 03:01:18;;;;;;;29.02;19.60;;;13.40;99.90;;;13.79;86.01;100624.38;4991059;28;20046;-69
2023/03/18 03:03:46;;;;;;;26.70;18.98;;;13.40;99.90;;;13.85;85.99;100620.69;4991232;28;20046;-69
2023/03/18 03:06:15;;;;;;;26.70;19.70;;;13.50;99.90;;;13.88;86.11;100625.97;4992399;28;20057;-69
2023/03/18 03:08:44;;;;;;;28.48;19.05;;;13.50;99.90;;;13.96;85.79;100634.63;4991176;28;20047;-68
2023/03/18 03:11:13;;;;;;;24.80;18.33;;;13.60;99.90;;;13.99;85.49;100630.16;4991114;28;20407;-69
2023/03/18 03:13:44;;;;;;;28.02;20.55;;;13.60;99.90;;;13.57;85.23;100554.84;4992255;28;20612;-69
2023/03/18 03:16:17;;;;;;;31.10;19.33;;;13.70;99.90;;;14.08;85.25;100629.94;4991025;28;20050;-69
2023/03/18 03:18:46;;;;;;;25.85;18.65;;;13.70;99.90;;;14.10;85.10;100624.56;4992739;28;20046;-69
2023/03/18 03:21:15;;;;;;;26.25;18.45;;;13.80;99.90;;;14.16;85.21;100640.38;4992404;28;20039;-69
2023/03/18 03:23:46;;;;;;;24.70;17.27;;;13.80;99.90;;;14.13;85.04;100648.44;4995898;28;20097;-69
2023/03/18 03:26:16;;;;;;;29.52;18.17;;;13.80;99.90;;;14.19;85.65;100650.94;4994585;28;20046;-69
2023/03/18 03:28:44;;;;;;;27.08;18.42;;;13.80;99.90;;;14.07;85.92;100648.59;4995958;28;20050;-69
2023/03/18 03:31:15;;;;;;;27.50;19.23;;;13.70;99.90;;;13.95;86.82;100635.56;4994505;28;20145;-69
2023/03/18 03:33:44;;;;;;;23.58;18.65;;;13.70;99.90;;;13.96;87.71;100653.25;4996001;28;20054;-69
2023/03/18 03:36:16;;;;;;;29.02;19.02;;;13.60;99.90;;;13.72;88.26;100627.19;4994783;28;20428;-69
2023/03/18 03:38:45;;;;;;;25.10;19.15;;;13.50;99.90;;;13.83;88.92;100662.41;4995915;28;20050;-69
2023/03/18 03:41:14;;;;;;;29.27;19.83;;;13.40;99.90;;;13.83;89.32;100652.66;4995806;28;20042;-69
2023/03/18 03:43:44;;;;;;;26.38;19.63;;;13.40;99.90;;;13.80;89.55;100654.50;4995551;28;20046;-69
2023/03/18 03:46:13;;;;;;;23.48;19.25;;;13.40;99.90;;;13.83;89.63;100651.75;4995704;28;20081;-69
2023/03/18 03:48:43;;;;;;;26.35;19.25;;;13.40;99.90;;;13.89;89.48;100656.94;4994675;28;20046;-69
2023/03/18 03:51:14;;;;;;;28.60;20.50;;;13.50;99.90;;;13.94;89.51;100661.25;4994652;28;20476;-70
2023/03/18 03:53:44;;;;;;;23.70;18.23;;;13.50;99.90;;;13.99;89.25;100655.84;4994301;28;20050;-69
2023/03/18 03:56:14;;;;;;;26.13;20.33;;;13.60;99.90;;;14.05;89.09;100653.91;4994297;28;20047;-69
2023/03/18 03:58:43;;;;;;;25.13;18.85;;;13.70;99.90;;;14.05;88.64;100650.41;4996014;28;20080;-69
2023/03/18 04:01:12;;;;;;;26.52;19.15;;;13.70;99.90;;;14.08;88.72;100652.97;4994511;28;20069;-69
2023/03/18 04:03:43;;;;;;;27.48;19.98;;;13.70;99.90;;;14.13;88.31;100656.44;4993846;28;20468;-69
2023/03/18 04:06:12;;;;;;;25.05;18.80;;;13.70;99.90;;;14.13;88.36;100659.09;4994151;28;20093;-69
2023/03/18 04:08:47;;;;;;;27.30;19.05;;;13.70;99.90;;;14.13;88.16;100667.06;4994032;28;20075;-69
2023/03/18 04:11:16;;;;;;;26.00;18.67;;;13.70;99.90;;;14.13;87.98;100669.72;4995151;28;20066;-69
2023/03/18 04:13:44;;;;;;;25.83;21.08;;;13.80;99.90;;;14.12;88.35;100678.59;4995226;28;20132;-68
2023/03/18 04:16:13;;;;;;;24.45;19.70;;;13.70;99.90;;;14.11;88.19;100675.06;4993886;28;20456;-68
2023/03/18 04:18:43;;;;;;;25.98;19.83;;;13.70;99.90;;;14.10;88.13;100686.63;4994899;28;20069;-69
2023/03/18 04:21:11;;;;;;;30.80;19.90;;;13.70;99.90;;;14.07;88.28;100685.81;4993478;28;20404;-69
2023/03/18 04:23:45;;;;;;;25.25;20.08;;;13.70;99.90;;;14.05;88.24;100690.28;4993655;28;20042;-69
2023/03/18 04:26:13;;;;;;;25.98;19.15;;;13.60;99.90;;;14.07;88.24;100696.47;4993879;28;20046;-69
2023/03/18 04:28:42;;;;;;;25.35;19.77;;;13.70;99.90;;;14.05;88.13;100699.13;4993519;28;20058;-69
2023/03/18 04:31:15;;;;;;;25.95;19.15;;;13.60;99.90;;;13.99;88.21;100691.31;4993441;28;20050;-69
2023/03/18 04:33:45;;;;;;;24.88;18.60;;;13.60;99.90;;;14.00;88.44;100697.47;4992812;28;20149;-69
2023/03/18 04:36:14;;;;;;;27.40;20.15;;;13.60;99.90;;;13.98;88.58;100702.84;4994711;28;20046;-69
2023/03/18 04:38:43;;;;;;;31.73;18.95;;;13.60;99.90;;;13.97;88.36;100700.22;4993570;28;20451;-68
2023/03/18 04:41:11;;;;;;;23.45;18.40;;;13.60;99.90;;;13.90;88.19;100696.78;4993572;28;20054;-69
2023/03/18 04:43:40;;;;;;;23.75;18.55;;;13.50;99.90;;;13.90;88.30;100706.56;4993217;28;20081;-69
2023/03/18 04:46:10;;;;;;;21.05;17.70;;;13.50;99.90;;;13.85;88.41;100714.63;4993055;28;20074;-69
2023/03/18 04:48:39;;;;;;;22.45;18.17;;;13.40;99.90;;;13.81;88.54;100718.25;4993438;28;20046;-68
2023/03/18 04:51:11;;;;;;;20.92;16.67;;;13.40;99.90;;;13.79;88.50;100721.84;4992808;28;20070;-69
2023/03/18 04:53:40;;;;;;;18.65;16.23;;;13.40;99.90;;;13.76;88.77;100720.16;4993095;28;20050;-69
2023/03/18 04:56:10;;;;;;;20.88;16.75;;;13.30;99.90;;;13.61;89.07;100695.66;4993107;28;20384;-69
2023/03/18 04:58:46;;;;;;;24.10;16.95;;;13.30;99.90;;;13.69;89.02;100733.56;4992790;28;20042;-69
2023/03/18 05:01:19;;;;;;;22.52;17.38;;;13.30;99.90;;;13.74;89.19;100721.06;4993168;28;20057;-68
2023/03/18 05:03:48;;;;;;;18.20;15.57;;;13.30;99.90;;;13.71;89.28;100723.78;4992919;28;20085;-69
2023/03/18 05:06:25;;;;;;;25.17;17.38;;;13.30;99.90;;;13.68;89.64;100735.38;4992785;28;20447;-69
2023/03/18 05:09:06;;;;;;;22.52;17.02;;;13.30;99.90;;;13.18;89.75;100627.38;4992549;28;20135;-69
2023/03/18 05:11:35;;;;;;;20.80;16.80;;;13.30;99.90;;;13.77;89.67;100723.66;4992769;28;20149;-69
2023/03/18 05:14:30;;;;;;;22.55;17.40;;;13.40;99.90;;;13.78;89.72;100707.66;4992552;28;20065;-68
2023/03/18 05:17:00;;;;;;;22.27;18.02;;;13.40;99.90;;;13.84;89.52;100720.00;4992441;28;20057;-68
2023/03/18 05:19:30;;;;;;;22.45;17.40;;;13.40;99.90;;;13.83;89.89;100737.72;4992375;28;20045;-68
2023/03/18 05:22:14;;;;;;;24.45;18.20;;;13.40;99.90;;;13.84;90.24;100709.38;4994244;28;20057;-69
2023/03/18 05:24:44;;;;;;;24.42;19.23;;;13.50;99.90;;;13.81;90.71;100706.75;4992240;28;20051;-69
2023/03/18 05:27:15;;;;;;;22.17;18.25;;;13.40;99.90;;;13.85;90.91;100705.78;4992366;28;20100;-69
2023/03/18 05:29:48;;;;;;;24.42;18.90;;;13.40;99.90;;;13.84;90.68;100709.38;4992280;28;20057;-69
2023/03/18 05:32:22;;;;;;;25.42;19.77;;;13.50;99.90;;;13.85;90.72;100701.34;4992218;28;20050;-68
2023/03/18 05:34:57;;;;;;;24.30;19.60;;;13.50;99.90;;;13.85;90.77;100719.97;4992369;28;20054;-68
2023/03/18 05:37:27;;;;;;;23.80;19.67;;;13.50;99.90;;;13.81;90.63;100709.41;4992315;28;20042;-68
2023/03/18 05:40:03;;;;;;;25.15;20.17;;;13.40;99.90;;;13.76;90.74;100705.97;4992303;28;20050;-69
2023/03/18 05:42:32;;;;;;;24.75;19.80;;;13.50;99.90;;;13.75;91.30;100698.88;4991893;28;20042;-68
2023/03/18 05:45:07;;;;;;;27.42;19.40;;;13.40;99.90;;;13.60;91.25;100681.47;4991501;28;20047;-68
2023/03/18 05:47:43;;;;;;;25.48;19.63;;;13.40;99.90;;;13.77;91.19;100686.44;4992107;28;20058;-69
2023/03/18 05:50:13;;;;;;;23.48;19.33;;;13.40;99.90;;;13.75;90.92;100690.91;4992089;28;20082;-69
2023/03/18 05:52:44;;;;;;;25.75;20.45;;;13.40;99.90;;;13.25;90.90;100614.88;4993179;28;20559;-69
2023/03/18 05:55:19;;;;;;;27.30;20.02;;;13.40;99.90;;;13.70;91.01;100700.78;4992378;28;20408;-69
2023/03/18 05:57:48;;;;;;;27.88;21.55;;;13.40;99.90;;;13.62;91.41;100708.03;4993266;28;20046;-68
2023/03/18 06:00:19;;;;;;;24.65;20.95;;;13.30;99.90;;;13.45;92.57;100716.31;4992002;28;20496;-68
2023/03/18 06:02:51;;;;;;;29.52;20.70;;;13.20;99.90;;;13.43;92.81;100718.13;4991705;28;20054;-69
2023/03/18 06:05:19;;;;;;;27.13;20.88;;;13.20;99.90;;;13.36;93.16;100720.00;4991649;28;20058;-68
2023/03/18 06:07:50;;;;;;;27.00;21.52;;;13.10;99.90;;;13.24;94.18;100711.41;4991844;28;20142;-69
2023/03/18 06:10:19;;;;;;;;;;;13.00;99.90;;;13.29;94.48;100713.06;4992279;28;20054;-69
2023/03/18 06:12:49;;;;;;;25.17;19.75;;;13.10;99.90;;;13.22;94.65;100724.69;4991593;28;19922;-69
2023/03/18 06:15:20;;;;;;;26.88;18.90;;;13.00;99.90;;;13.19;94.76;100740.69;4992970;28;20368;-69
2023/03/18 06:17:49;;;;;;;23.02;18.52;;;12.90;99.90;;;13.23;94.56;100739.75;4991541;28;20056;-69
2023/03/18 06:20:19;;;;;;;22.17;17.67;;;13.00;99.90;;;13.22;93.85;100743.28;4991755;28;20070;-68
2023/03/18 06:22:49;;;;;;;24.23;19.08;;;13.00;99.90;;;13.25;93.47;100756.53;4991808;28;20439;-68
2023/03/18 06:25:20;;;;;;;21.80;18.00;;;13.00;99.90;;;13.18;93.10;100746.88;4991564;28;20563;-69
2023/03/18 06:27:49;;;;;;;24.40;19.67;;;13.10;99.90;;;13.38;92.53;100755.41;4991782;28;20058;-69
2023/03/18 06:30:21;;;;;;;24.25;18.60;;;13.10;99.90;;;13.45;92.31;100761.50;4991491;28;20042;-68
2023/03/18 06:32:49;;;;;;;25.33;17.42;;;13.20;99.90;;;13.40;92.03;100764.22;4991734;28;20529;-68
2023/03/18 06:35:19;;;;;;;26.50;18.98;;;13.10;99.90;;;13.48;92.22;100766.75;4991664;28;20088;-69
2023/03/18 06:37:49;;;;;;;24.95;18.35;;;13.20;99.90;;;13.53;92.22;100763.09;4991587;28;20050;-69
2023/03/18 06:40:17;;;;;;;23.85;19.45;;;13.20;99.90;;;13.61;92.77;100760.28;4991628;28;20459;-69
2023/03/18 06:42:47;;;;;;;25.48;19.15;;;13.40;99.90;;;13.80;92.40;100776.78;4991881;28;20054;-68
2023/03/18 06:45:27;;;;;;;24.10;18.83;;;13.50;99.90;;;13.91;92.05;100769.47;4991919;28;20492;-68
2023/03/18 06:48:00;;;;;;;25.50;18.80;;;13.60;99.90;;;13.95;91.31;100761.41;4991570;28;20054;-69
2023/03/18 06:50:30;;;;;;;24.80;19.50;;;13.70;99.90;;;14.04;91.39;100773.63;4991268;28;20097;-69
2023/03/18 06:53:01;;;;;;;26.42;19.45;;;13.70;99.90;;;14.06;91.42;100778.03;4991383;28;20060;-69
2023/03/18 06:55:33;;;;;;;25.63;19.60;;;13.80;99.90;;;14.12;91.22;100791.22;4991726;28;20515;-68
2023/03/18 06:58:04;;;;;;;28.15;20.00;;;13.80;99.90;;;14.26;91.39;100790.94;4995189;28;20050;-69
2023/03/18 07:00:44;;;;;;;27.33;20.10;;;14.00;99.90;;;14.37;90.93;100783.63;4995382;28;20058;-69
2023/03/18 07:03:17;;;;;;;27.10;21.42;;;14.10;99.90;;;14.50;90.75;100786.91;4995221;28;20073;-69
2023/03/18 07:05:46;;;;;;;27.10;20.25;;;14.30;99.90;;;14.61;89.99;100788.44;4996329;28;20065;-69
2023/03/18 07:08:16;;;;;;;28.90;22.10;;;14.40;99.90;;;14.80;89.93;100776.44;4995354;28;20506;-69
2023/03/18 07:10:46;;;;;;;25.10;20.57;;;14.50;99.90;;;14.93;89.70;100783.22;4995284;28;20108;-69
2023/03/18 07:13:15;;;;;;;25.50;20.23;;;14.60;99.90;;;14.98;89.45;100783.97;4995200;28;20281;-69
2023/03/18 07:15:45;;;;;;;30.27;21.58;;;14.70;99.90;;;15.15;88.53;100778.28;4996225;28;20050;-69
2023/03/18 07:18:14;;;;;;;24.60;19.75;;;14.90;99.90;;;15.27;87.76;100789.47;4994993;28;20096;-69
2023/03/18 07:20:43;;;;;;;30.20;20.75;;;15.00;99.90;;;15.41;87.37;100793.63;4994664;28;20081;-69
2023/03/18 07:23:12;;;;;;;24.45;20.20;;;15.10;99.90;;;15.54;86.84;100795.97;4996201;28;20046;-69
2023/03/18 07:25:43;;;;;;;29.90;19.40;;;15.30;99.90;;;15.55;86.23;100799.47;4994413;28;20046;-69
2023/03/18 07:28:12;;;;;;;27.02;20.17;;;15.30;99.90;;;15.66;85.75;100797.44;4994210;28;20054;-69
2023/03/18 07:30:40;;;;;;;23.98;18.58;;;15.40;99.90;;;15.73;85.22;100799.91;4994665;28;20053;-69
2023/03/18 07:33:09;;;;;;;25.15;17.80;;;15.50;99.90;;;15.94;84.91;100803.78;4995631;28;20058;-69
2023/03/18 07:35:39;;;;;;;25.33;17.88;;;15.60;99.90;;;15.96;84.63;100796.59;4994514;28;20043;-69
2023/03/18 07:38:09;;;;;;;26.73;20.38;;;15.70;99.90;;;16.31;84.13;100806.28;4994468;28;20042;-69
2023/03/18 07:40:38;;;;;;;24.25;18.52;;;16.00;99.90;;;16.48;83.71;100807.56;4995765;28;20052;-69
2023/03/18 07:43:08;;;;;;;21.25;16.77;;;16.20;99.90;;;16.52;81.75;100787.88;4995419;28;20399;-69
2023/03/18 07:45:37;;;;;;;23.05;17.63;;;16.40;99.90;;;16.69;80.53;100817.63;4995305;28;20046;-69
2023/03/18 07:48:06;;;;;;;24.38;19.33;;;16.50;99.90;;;16.79;80.92;100816.44;4994132;28;20104;-69
2023/03/18 07:50:35;;;;;;;21.33;17.88;;;16.50;99.90;;;16.91;80.13;100826.75;4995273;28;20129;-68
2023/03/18 07:53:03;;;;;;;26.20;19.42;;;16.60;99.90;;;16.96;79.50;100822.13;4994098;28;20480;-68
2023/03/18 07:55:32;;;;;;;21.20;16.60;;;16.70;99.90;;;16.85;78.41;100842.06;4995365;28;20058;-68
2023/03/18 07:58:03;;;;;;;22.33;16.20;;;16.70;99.90;;;16.74;78.83;100837.03;4995142;28;20395;-69
2023/03/18 08:00:33;;;;;;;23.33;17.02;;;16.50;99.90;;;16.55;78.62;100818.97;4995427;28;20051;-67
2023/03/18 08:03:02;;;;;;;21.97;17.73;;;16.30;99.90;;;16.58;79.01;100819.75;4995650;28;20038;-67
2023/03/18 08:05:32;;;;;;;22.63;17.52;;;16.30;99.90;;;16.82;79.29;100810.97;4995158;28;20092;-67
2023/03/18 08:08:03;;;;;;;21.30;17.77;;;16.50;99.90;;;17.01;78.32;100814.81;4994396;28;20050;-66
2023/03/18 08:10:35;;;;;;;23.73;17.27;;;16.70;99.90;;;17.25;77.97;100813.16;4994946;28;20034;-67
2023/03/18 08:13:10;;;;;;;23.13;16.95;;;16.90;99.90;;;17.52;76.81;100820.31;4995150;28;20038;-67
2023/03/18 08:15:45;;;;;;;21.00;17.23;;;17.20;99.90;;;17.73;75.45;100822.25;4995115;28;20054;-67
2023/03/18 08:18:14;;;;;;;21.33;16.65;;;17.50;99.90;;;17.85;74.33;100827.19;4994992;28;20042;-69
2023/03/18 08:20:43;;;;;;;18.55;16.55;;;17.60;99.90;;;17.97;73.16;100820.53;4994917;28;20097;-67
2023/03/18 08:23:12;;;;;;;25.85;19.55;;;17.70;99.90;;;18.21;72.80;100818.78;4994712;28;20088;-66
2023/03/18 08:25:40;;;;;;;20.60;16.60;;;17.90;99.90;;;18.39;72.26;100829.69;4994894;28;20039;-65
2023/03/18 08:28:10;;;;;;;21.60;16.67;;;18.10;99.90;;;18.45;71.33;100834.84;4994818;28;20042;-64
2023/03/18 08:30:40;;;;;;;21.85;16.63;;;18.20;99.90;;;18.51;71.86;100842.66;4994838;28;20101;-65
2023/03/18 08:33:09;;;;;;;20.35;16.08;;;18.30;99.90;;;18.60;70.71;100836.09;4994843;28;20066;-64
2023/03/18 08:35:41;;;;;;;20.60;17.65;;;18.40;99.90;;;18.49;69.67;100846.31;4994565;28;20113;-67
2023/03/18 08:38:10;;;;;;;21.25;17.00;;;18.30;99.90;;;18.39;69.82;100853.78;4994965;28;20480;-69
2023/03/18 08:40:41;;;;;;;21.50;16.65;;;18.10;99.90;;;18.25;70.46;100853.44;4995065;28;20050;-68
2023/03/18 08:43:09;;;;;;;24.17;18.58;;;17.90;99.90;;;18.20;70.93;100860.75;4994640;28;20089;-66
2023/03/18 08:45:38;;;;;;;20.60;17.80;;;17.90;99.90;;;18.13;70.61;100858.34;4994315;28;20049;-66
2023/03/18 08:48:08;;;;;;;24.67;18.73;;;17.90;99.90;;;18.06;70.75;100862.16;4994274;28;20550;-66
2023/03/18 08:50:37;;;;;;;20.75;17.15;;;17.70;99.90;;;18.13;71.44;100861.00;4992806;28;20504;-65
2023/03/18 08:53:06;;;;;;;21.42;17.77;;;17.80;99.90;;;18.02;71.33;100872.97;4994249;28;20042;-67
2023/03/18 08:55:36;;;;;;;21.70;17.70;;;17.70;99.90;;;17.69;71.12;100881.28;4994330;28;20433;-65
2023/03/18 08:58:06;;;;;;;20.38;17.13;;;17.40;99.90;;;17.39;72.04;100880.44;4994358;28;20470;-66
2023/03/18 09:00:37;;;;;;;22.27;17.50;;;17.10;99.90;;;17.12;73.14;100890.22;4994190;28;20451;-66
2023/03/18 09:03:07;;;;;;;24.13;17.65;;;16.80;99.90;;;17.15;73.19;100875.84;4994291;28;20101;-66
2023/03/18 09:05:36;;;;;;;22.08;17.60;;;16.70;99.90;;;17.36;74.00;100872.53;4994157;28;20088;-67
2023/03/18 09:08:05;;;;;;;24.77;19.52;;;16.90;99.90;;;17.57;74.22;100884.38;4994482;28;20050;-70
2023/03/18 09:10:34;;;;;;;26.45;18.92;;;17.20;99.90;;;17.68;73.83;100883.09;4992865;28;20186;-69
2023/03/18 09:13:04;;;;;;;25.08;19.85;;;17.40;99.90;;;17.39;73.66;100875.09;4993986;28;20046;-69
2023/03/18 09:15:32;;;;;;;22.70;19.88;;;17.20;99.90;;;17.40;73.79;100870.63;4994126;28;20046;-69
2023/03/18 09:18:02;;;;;;;23.50;19.83;;;17.10;99.90;;;17.59;73.37;100869.13;4993874;28;20069;-69
2023/03/18 09:20:42;;;;;;;27.65;19.35;;;17.30;99.90;;;17.43;73.96;100854.47;4994338;28;20038;-68
2023/03/18 09:23:12;;;;;;;24.95;19.02;;;17.20;99.90;;;17.44;73.02;100857.09;4994179;28;20058;-73
2023/03/18 09:25:41;;;;;;;24.05;18.45;;;17.30;99.90;;;17.72;73.12;100882.06;4993761;28;20046;-71
2023/03/18 09:28:10;;;;;;;21.58;17.75;;;17.40;99.90;;;17.76;72.90;100880.16;4993477;28;20046;-73
2023/03/18 09:30:38;;;;;;;25.10;18.60;;;17.50;99.90;;;17.63;72.98;100852.94;4993596;28;20121;-72
2023/03/18 09:33:08;;;;;;;22.58;17.75;;;17.50;99.90;;;17.89;72.18;100881.47;4993682;28;20043;-70
2023/03/18 09:35:37;;;;;;;22.05;18.45;;;17.60;99.90;;;17.94;71.54;100890.25;4993309;28;20057;-72
2023/03/18 09:38:07;;;;;;;24.80;19.23;;;17.60;99.90;;;17.90;71.87;100878.75;4993027;28;20035;-70
2023/03/18 09:40:37;;;;;;;24.98;21.08;;;17.60;99.90;;;17.91;71.78;100884.97;4993495;28;20121;-70
2023/03/18 09:43:15;;;;;;;;;;;17.60;99.90;;;17.62;72.09;100887.75;4993806;28;20054;-69
2023/03/18 09:45:58;;;;;;;30.60;24.40;;;17.50;99.90;;;17.58;72.91;100875.41;4993126;28;19953;-70
2023/03/18 09:48:57;;;;;;;28.77;23.33;;;17.30;99.90;;;17.58;72.69;100889.66;4993201;28;20050;-72
2023/03/18 09:51:41;;;;;;;29.17;24.85;;;17.30;99.90;;;17.43;72.13;100875.88;4992675;28;20085;-71
2023/03/18 09:54:16;;;;;;;27.85;23.60;;;17.20;99.90;;;17.33;72.96;100890.44;4991921;28;20062;-72
2023/03/18 09:56:45;;;;;;;28.23;24.13;;;17.00;99.90;;;16.63;74.74;100849.84;4993129;28;20496;-72
2023/03/18 09:59:21;;;;;;;28.77;23.05;;;16.60;99.90;;;16.74;75.75;100890.47;4993013;28;20159;-72
2023/03/18 10:01:54;;;;;;;26.50;22.33;;;16.50;99.90;;;16.75;76.29;100870.88;4993229;28;20065;-73
2023/03/18 10:04:26;;;;;;;26.70;22.92;;;16.50;99.90;;;16.80;76.33;100884.94;4993059;28;20165;-73
2023/03/18 10:07:01;;;;;;;29.63;22.35;;;16.50;99.90;;;16.72;76.09;100875.44;4992751;28;20081;-73
2023/03/18 10:09:38;;;;;;;26.98;22.27;;;16.40;99.90;;;16.67;76.59;100872.88;4991508;28;20057;-73
2023/03/18 10:12:16;;;;;;;27.35;22.13;;;16.40;99.90;;;16.46;76.52;100856.56;4993416;28;20069;-73
2023/03/18 10:14:49;;;;;;;26.60;20.13;;;16.30;99.90;;;16.58;77.00;100877.63;4992799;28;20104;-72
2023/03/18 10:17:21;;;;;;;26.48;19.55;;;16.30;99.90;;;16.53;76.86;100867.06;4991577;28;20566;-72